Berlin, NH (03570)

5:33 AM EDT on July 23, 2016 (GMT -0400)
Norwegian village | | Change Station

Elev 1099 ft 44.48 °N, 71.17 °W | Updated 10 seconds ago

Partly Cloudy
Partly Cloudy
60.6 °F
Feels Like 60.6 °F
N
0.0
Wind Variable Wind from SE
Gusts 0.0 mph

Today
High -- | Low -- °F
--% Chance of Precip.
Yesterday
High -- | Low -- °F
Precip. -- in
Pressure 29.77 in
Visibility 1.2 miles
Clouds Few 800 ft
Dew Point 60 °F
Humidity 99%
Rainfall 0.30 in
Snow Depth Not available.
5:22 AM 8:19 PM
Waning Gibbous, 86% visible
SPECI KBML 230925Z AUTO 00000KT 1 1/4SM BR FEW008 15/14 A2977 RMK AO2 T01500139
Pressure 29.77 in
Visibility 1.2 miles
Clouds Few 800 ft
Dew Point 60 °F
Humidity 99%
Rainfall 0.30 in
Snow Depth Not available.
5:22 AM 8:19 PM
Waning Gibbous, 86% visible
SPECI KBML 230925Z AUTO 00000KT 1 1/4SM BR FEW008 15/14 A2977 RMK AO2 T01500139

10-Day Weather Forecast

Almanac

Astronomy

Jul. 23, 2016 Rise Set
Actual Time
Civil Twilight
Nautical Twilight
Astronomical Twilight
Moon
Length of Visible Light
Length of Day
Tomorrow will be .
, % of the Moon is Illuminated

Today's Extremes

State Highs State Lows

Community

WunderPhotos

Upload Photos

1,926,790 photos uploaded!

WunderBlog® & News

Nearby

Air Quality

  Air Quality AQ Index Pollutant
Not available.

Snow Depth

Station Depth Elevation

Earthquake Activity

City Distance Mag. Time & Date
Minimum magnitude displayed is 2.5.

Coastal Water Temperatures

Place Temperature

Stations

Nearby Weather Stations

Station Location Temp. Windchill Dew Point Humidity Wind Precip. Elev Updated Type
                   

Watches & Warnings

There are currently no watches in effect.